sensor_id;sensor_type;location;lat;lon;timestamp;temperature;humidity
2459;DHT22;1241;50.920;6.936;2023-03-04T00:01:50;4.70;99.90
2459;DHT22;1241;50.920;6.936;2023-03-04T00:04:16;4.60;99.90
2459;DHT22;1241;50.920;6.936;2023-03-04T00:06:42;4.70;99.90
2459;DHT22;1241;50.920;6.936;2023-03-04T00:09:08;4.60;99.90
2459;DHT22;1241;50.920;6.936;2023-03-04T00:11:34;4.60;99.90
2459;DHT22;1241;50.920;6.936;2023-03-04T00:13:59;4.70;99.90
2459;DHT22;1241;50.920;6.936;2023-03-04T00:16:25;4.80;99.90
2459;DHT22;1241;50.920;6.936;2023-03-04T00:18:56;4.80;99.90
2459;DHT22;1241;50.920;6.936;2023-03-04T00:21:22;4.80;99.90
2459;DHT22;1241;50.920;6.936;2023-03-04T00:23:48;4.80;99.90
2459;DHT22;1241;50.920;6.936;2023-03-04T00:26:14;4.90;99.90
2459;DHT22;1241;50.920;6.936;2023-03-04T00:28:42;4.90;99.90
2459;DHT22;1241;50.920;6.936;2023-03-04T00:31:08;4.80;99.90
2459;DHT22;1241;50.920;6.936;2023-03-04T00:33:34;4.80;99.90
2459;DHT22;1241;50.920;6.936;2023-03-04T00:36:01;4.80;99.90
2459;DHT22;1241;50.920;6.936;2023-03-04T00:38:27;4.80;99.90
2459;DHT22;1241;50.920;6.936;2023-03-04T00:40:53;4.80;99.90
2459;DHT22;1241;50.920;6.936;2023-03-04T00:43:19;4.90;99.90
2459;DHT22;1241;50.920;6.936;2023-03-04T00:45:45;4.90;99.90
2459;DHT22;1241;50.920;6.936;2023-03-04T00:48:13;4.90;99.90
2459;DHT22;1241;50.920;6.936;2023-03-04T00:50:39;4.80;99.90
2459;DHT22;1241;50.920;6.936;2023-03-04T00:53:05;4.80;99.90
2459;DHT22;1241;50.920;6.936;2023-03-04T00:55:31;4.80;99.90
2459;DHT22;1241;50.920;6.936;2023-03-04T00:57:56;4.80;99.90
2459;DHT22;1241;50.920;6.936;2023-03-04T01:00:22;4.80;99.90
2459;DHT22;1241;50.920;6.936;2023-03-04T01:02:49;4.80;99.90
2459;DHT22;1241;50.920;6.936;2023-03-04T01:05:15;4.70;99.90
2459;DHT22;1241;50.920;6.936;2023-03-04T01:07:41;4.70;99.90
2459;DHT22;1241;50.920;6.936;2023-03-04T01:10:07;4.70;99.90
2459;DHT22;1241;50.920;6.936;2023-03-04T01:12:34;4.80;99.90
2459;DHT22;1241;50.920;6.936;2023-03-04T01:14:59;4.90;99.90
2459;DHT22;1241;50.920;6.936;2023-03-04T01:17:25;4.80;99.90
2459;DHT22;1241;50.920;6.936;2023-03-04T01:19:51;4.90;99.90
2459;DHT22;1241;50.920;6.936;2023-03-04T01:22:17;4.90;99.90
2459;DHT22;1241;50.920;6.936;2023-03-04T01:24:44;4.90;99.90
2459;DHT22;1241;50.920;6.936;2023-03-04T01:27:10;4.90;99.90
2459;DHT22;1241;50.920;6.936;2023-03-04T01:29:36;5.00;99.90
2459;DHT22;1241;50.920;6.936;2023-03-04T01:32:02;5.10;99.90
2459;DHT22;1241;50.920;6.936;2023-03-04T01:34:27;5.20;99.90
2459;DHT22;1241;50.920;6.936;2023-03-04T01:36:53;5.20;99.90
2459;DHT22;1241;50.920;6.936;2023-03-04T01:39:19;5.20;99.90
2459;DHT22;1241;50.920;6.936;2023-03-04T01:41:45;5.20;99.90
2459;DHT22;1241;50.920;6.936;2023-03-04T01:44:11;5.30;99.90
2459;DHT22;1241;50.920;6.936;2023-03-04T01:46:40;5.20;99.90
2459;DHT22;1241;50.920;6.936;2023-03-04T01:49:09;5.20;99.90
2459;DHT22;1241;50.920;6.936;2023-03-04T01:51:36;5.20;99.90
2459;DHT22;1241;50.920;6.936;2023-03-04T01:54:02;5.30;99.90
2459;DHT22;1241;50.920;6.936;2023-03-04T01:56:30;5.30;99.90
2459;DHT22;1241;50.920;6.936;2023-03-04T02:02:01;5.40;99.90
2459;DHT22;1241;50.920;6.936;2023-03-04T02:04:30;5.30;99.90
2459;DHT22;1241;50.920;6.936;2023-03-04T02:06:58;5.30;99.90
2459;DHT22;1241;50.920;6.936;2023-03-04T02:09:26;5.30;99.90
2459;DHT22;1241;50.920;6.936;2023-03-04T02:11:53;5.20;99.90
2459;DHT22;1241;50.920;6.936;2023-03-04T02:14:19;5.30;99.90
2459;DHT22;1241;50.920;6.936;2023-03-04T02:16:47;5.20;99.90
2459;DHT22;1241;50.920;6.936;2023-03-04T02:19:41;5.20;99.90
2459;DHT22;1241;50.920;6.936;2023-03-04T02:22:09;5.30;99.90
2459;DHT22;1241;50.920;6.936;2023-03-04T02:24:43;5.30;99.90
2459;DHT22;1241;50.920;6.936;2023-03-04T02:27:10;5.20;99.90
2459;DHT22;1241;50.920;6.936;2023-03-04T02:29:37;5.20;99.90
2459;DHT22;1241;50.920;6.936;2023-03-04T02:32:03;5.20;99.90
2459;DHT22;1241;50.920;6.936;2023-03-04T02:34:35;5.30;99.90
2459;DHT22;1241;50.920;6.936;2023-03-04T02:37:02;5.30;99.90
2459;DHT22;1241;50.920;6.936;2023-03-04T02:39:44;5.40;99.90
2459;DHT22;1241;50.920;6.936;2023-03-04T02:42:11;5.30;99.90
2459;DHT22;1241;50.920;6.936;2023-03-04T02:44:40;5.20;99.90
2459;DHT22;1241;50.920;6.936;2023-03-04T02:47:09;5.20;99.90
2459;DHT22;1241;50.920;6.936;2023-03-04T02:49:38;5.20;99.90
2459;DHT22;1241;50.920;6.936;2023-03-04T02:54:36;5.40;99.90
2459;DHT22;1241;50.920;6.936;2023-03-04T02:57:05;5.50;99.90
2459;DHT22;1241;50.920;6.936;2023-03-04T02:59:34;5.50;99.90
2459;DHT22;1241;50.920;6.936;2023-03-04T03:02:00;5.50;99.90
2459;DHT22;1241;50.920;6.936;2023-03-04T03:04:27;5.50;99.90
2459;DHT22;1241;50.920;6.936;2023-03-04T03:06:53;5.60;99.90
2459;DHT22;1241;50.920;6.936;2023-03-04T03:09:20;5.50;99.90
2459;DHT22;1241;50.920;6.936;2023-03-04T03:11:46;5.60;99.90
2459;DHT22;1241;50.920;6.936;2023-03-04T03:14:13;5.60;99.90
2459;DHT22;1241;50.920;6.936;2023-03-04T03:16:39;5.70;99.90
2459;DHT22;1241;50.920;6.936;2023-03-04T03:19:05;5.60;99.90
2459;DHT22;1241;50.920;6.936;2023-03-04T03:21:32;5.60;99.90
2459;DHT22;1241;50.920;6.936;2023-03-04T03:23:57;5.60;99.90
2459;DHT22;1241;50.920;6.936;2023-03-04T03:26:23;5.70;99.90
2459;DHT22;1241;50.920;6.936;2023-03-04T03:28:49;5.70;99.90
2459;DHT22;1241;50.920;6.936;2023-03-04T03:31:15;5.70;99.90
2459;DHT22;1241;50.920;6.936;2023-03-04T03:33:45;5.60;99.90
2459;DHT22;1241;50.920;6.936;2023-03-04T03:36:11;5.50;99.90
2459;DHT22;1241;50.920;6.936;2023-03-04T03:38:37;5.50;99.90
2459;DHT22;1241;50.920;6.936;2023-03-04T03:41:03;5.50;99.90
2459;DHT22;1241;50.920;6.936;2023-03-04T03:43:29;5.60;99.90
2459;DHT22;1241;50.920;6.936;2023-03-04T03:45:55;5.60;99.90
2459;DHT22;1241;50.920;6.936;2023-03-04T03:48:20;5.60;99.90
2459;DHT22;1241;50.920;6.936;2023-03-04T03:50:46;5.60;99.90
2459;DHT22;1241;50.920;6.936;2023-03-04T03:53:12;5.60;99.90
2459;DHT22;1241;50.920;6.936;2023-03-04T03:55:37;5.60;99.90
2459;DHT22;1241;50.920;6.936;2023-03-04T03:58:04;5.70;99.90
2459;DHT22;1241;50.920;6.936;2023-03-04T04:00:30;5.80;99.90
2459;DHT22;1241;50.920;6.936;2023-03-04T04:02:57;5.80;99.90
2459;DHT22;1241;50.920;6.936;2023-03-04T04:05:24;5.80;99.90
2459;DHT22;1241;50.920;6.936;2023-03-04T04:07:50;5.80;99.90
2459;DHT22;1241;50.920;6.936;2023-03-04T04:10:15;5.80;99.90
2459;DHT22;1241;50.920;6.936;2023-03-04T04:12:41;5.80;99.90
2459;DHT22;1241;50.920;6.936;2023-03-04T04:15:10;5.80;99.90
2459;DHT22;1241;50.920;6.936;2023-03-04T04:17:36;5.70;99.90
2459;DHT22;1241;50.920;6.936;2023-03-04T04:20:01;5.60;99.90
2459;DHT22;1241;50.920;6.936;2023-03-04T04:22:27;5.50;99.90
2459;DHT22;1241;50.920;6.936;2023-03-04T04:24:53;5.50;99.90
2459;DHT22;1241;50.920;6.936;2023-03-04T04:27:18;5.50;99.90
2459;DHT22;1241;50.920;6.936;2023-03-04T04:29:44;5.60;99.90
2459;DHT22;1241;50.920;6.936;2023-03-04T04:32:10;5.50;99.90
2459;DHT22;1241;50.920;6.936;2023-03-04T04:34:37;5.50;99.90
2459;DHT22;1241;50.920;6.936;2023-03-04T04:37:03;5.50;99.90
2459;DHT22;1241;50.920;6.936;2023-03-04T04:39:29;5.40;99.90
2459;DHT22;1241;50.920;6.936;2023-03-04T04:41:55;5.40;99.90
2459;DHT22;1241;50.920;6.936;2023-03-04T04:44:20;5.40;99.90
2459;DHT22;1241;50.920;6.936;2023-03-04T04:46:46;5.30;99.90
2459;DHT22;1241;50.920;6.936;2023-03-04T04:49:11;5.40;99.90
2459;DHT22;1241;50.920;6.936;2023-03-04T04:51:37;5.40;99.90
2459;DHT22;1241;50.920;6.936;2023-03-04T04:54:04;5.40;99.90
2459;DHT22;1241;50.920;6.936;2023-03-04T04:56:30;5.40;99.90
2459;DHT22;1241;50.920;6.936;2023-03-04T04:58:58;5.50;99.90
2459;DHT22;1241;50.920;6.936;2023-03-04T05:01:25;5.40;99.90
2459;DHT22;1241;50.920;6.936;2023-03-04T05:03:51;5.50;99.90
2459;DHT22;1241;50.920;6.936;2023-03-04T05:06:22;5.50;99.90
2459;DHT22;1241;50.920;6.936;2023-03-04T05:08:48;5.50;99.90
2459;DHT22;1241;50.920;6.936;2023-03-04T05:11:14;5.60;99.90
2459;DHT22;1241;50.920;6.936;2023-03-04T05:13:40;5.60;99.90
2459;DHT22;1241;50.920;6.936;2023-03-04T05:16:06;5.60;99.90
2459;DHT22;1241;50.920;6.936;2023-03-04T05:18:32;5.60;99.90
2459;DHT22;1241;50.920;6.936;2023-03-04T05:21:00;5.60;99.90
2459;DHT22;1241;50.920;6.936;2023-03-04T05:23:30;5.60;99.90
2459;DHT22;1241;50.920;6.936;2023-03-04T05:25:56;5.70;99.90
2459;DHT22;1241;50.920;6.936;2023-03-04T05:28:22;5.70;99.90
2459;DHT22;1241;50.920;6.936;2023-03-04T05:30:48;5.60;99.90
2459;DHT22;1241;50.920;6.936;2023-03-04T05:33:16;5.70;99.90
2459;DHT22;1241;50.920;6.936;2023-03-04T05:35:43;5.60;99.90
2459;DHT22;1241;50.920;6.936;2023-03-04T05:38:12;5.50;99.90
2459;DHT22;1241;50.920;6.936;2023-03-04T05:40:39;5.50;99.90
2459;DHT22;1241;50.920;6.936;2023-03-04T05:43:05;5.50;99.90
2459;DHT22;1241;50.920;6.936;2023-03-04T05:45:31;5.50;99.90
2459;DHT22;1241;50.920;6.936;2023-03-04T05:47:57;5.50;99.90
2459;DHT22;1241;50.920;6.936;2023-03-04T05:50:23;5.50;99.90
2459;DHT22;1241;50.920;6.936;2023-03-04T05:52:51;5.50;99.90
2459;DHT22;1241;50.920;6.936;2023-03-04T05:55:17;5.50;99.90
2459;DHT22;1241;50.920;6.936;2023-03-04T05:57:44;5.60;99.90
2459;DHT22;1241;50.920;6.936;2023-03-04T06:00:11;5.60;99.90
2459;DHT22;1241;50.920;6.936;2023-03-04T06:02:41;5.60;99.90
2459;DHT22;1241;50.920;6.936;2023-03-04T06:05:07;5.70;99.90
2459;DHT22;1241;50.920;6.936;2023-03-04T06:07:33;5.70;99.90
2459;DHT22;1241;50.920;6.936;2023-03-04T06:09:59;5.70;99.90
2459;DHT22;1241;50.920;6.936;2023-03-04T06:12:25;5.70;99.90
2459;DHT22;1241;50.920;6.936;2023-03-04T06:14:50;5.60;99.90
2459;DHT22;1241;50.920;6.936;2023-03-04T06:17:16;5.60;99.90
2459;DHT22;1241;50.920;6.936;2023-03-04T06:19:42;5.70;99.90
2459;DHT22;1241;50.920;6.936;2023-03-04T06:22:08;5.80;99.90
2459;DHT22;1241;50.920;6.936;2023-03-04T06:24:35;5.70;99.90
2459;DHT22;1241;50.920;6.936;2023-03-04T06:27:01;5.80;99.90
2459;DHT22;1241;50.920;6.936;2023-03-04T06:29:27;5.80;99.90
2459;DHT22;1241;50.920;6.936;2023-03-04T06:31:53;5.70;99.90
2459;DHT22;1241;50.920;6.936;2023-03-04T06:34:19;5.70;99.90
2459;DHT22;1241;50.920;6.936;2023-03-04T06:36:44;5.80;99.90
2459;DHT22;1241;50.920;6.936;2023-03-04T06:39:10;5.70;99.90
2459;DHT22;1241;50.920;6.936;2023-03-04T06:41:37;5.80;99.90
2459;DHT22;1241;50.920;6.936;2023-03-04T06:44:03;5.80;99.90
2459;DHT22;1241;50.920;6.936;2023-03-04T06:46:29;5.80;99.90
2459;DHT22;1241;50.920;6.936;2023-03-04T06:48:55;5.80;99.90
2459;DHT22;1241;50.920;6.936;2023-03-04T06:51:21;5.80;99.90
2459;DHT22;1241;50.920;6.936;2023-03-04T06:53:46;5.90;99.90
2459;DHT22;1241;50.920;6.936;2023-03-04T06:56:13;6.00;99.90
2459;DHT22;1241;50.920;6.936;2023-03-04T06:58:41;6.00;99.90
2459;DHT22;1241;50.920;6.936;2023-03-04T07:01:14;6.00;99.90
2459;DHT22;1241;50.920;6.936;2023-03-04T07:03:40;6.00;99.90
2459;DHT22;1241;50.920;6.936;2023-03-04T07:06:08;6.00;99.90
2459;DHT22;1241;50.920;6.936;2023-03-04T07:08:34;6.00;99.90
2459;DHT22;1241;50.920;6.936;2023-03-04T07:10:59;6.00;99.90
2459;DHT22;1241;50.920;6.936;2023-03-04T07:13:25;6.00;99.90
2459;DHT22;1241;50.920;6.936;2023-03-04T07:15:51;5.90;99.90
2459;DHT22;1241;50.920;6.936;2023-03-04T07:18:17;6.20;99.90
2459;DHT22;1241;50.920;6.936;2023-03-04T07:20:43;5.80;99.90
2459;DHT22;1241;50.920;6.936;2023-03-04T07:23:08;5.80;99.90
2459;DHT22;1241;50.920;6.936;2023-03-04T07:25:34;5.80;99.90
2459;DHT22;1241;50.920;6.936;2023-03-04T07:28:00;5.80;99.90
2459;DHT22;1241;50.920;6.936;2023-03-04T07:30:25;5.90;99.90
2459;DHT22;1241;50.920;6.936;2023-03-04T07:32:52;5.90;99.90
2459;DHT22;1241;50.920;6.936;2023-03-04T07:35:17;5.90;99.90
2459;DHT22;1241;50.920;6.936;2023-03-04T07:37:43;5.80;99.90
2459;DHT22;1241;50.920;6.936;2023-03-04T07:40:09;5.70;99.90
2459;DHT22;1241;50.920;6.936;2023-03-04T07:42:35;5.60;99.90
2459;DHT22;1241;50.920;6.936;2023-03-04T07:45:08;5.70;99.90
2459;DHT22;1241;50.920;6.936;2023-03-04T07:47:34;5.70;99.90
2459;DHT22;1241;50.920;6.936;2023-03-04T07:50:00;5.80;99.90
2459;DHT22;1241;50.920;6.936;2023-03-04T07:52:26;5.90;99.90
2459;DHT22;1241;50.920;6.936;2023-03-04T07:54:51;5.90;99.90
2459;DHT22;1241;50.920;6.936;2023-03-04T07:57:17;6.00;99.90
2459;DHT22;1241;50.920;6.936;2023-03-04T07:59:42;6.10;99.90
2459;DHT22;1241;50.920;6.936;2023-03-04T08:02:09;6.20;99.90
2459;DHT22;1241;50.920;6.936;2023-03-04T08:04:35;6.20;99.90
2459;DHT22;1241;50.920;6.936;2023-03-04T08:07:01;6.20;99.90
2459;DHT22;1241;50.920;6.936;2023-03-04T08:09:27;6.20;99.90
2459;DHT22;1241;50.920;6.936;2023-03-04T08:11:52;6.20;99.90
2459;DHT22;1241;50.920;6.936;2023-03-04T08:14:18;6.30;99.90
2459;DHT22;1241;50.920;6.936;2023-03-04T08:16:44;6.30;99.90
2459;DHT22;1241;50.920;6.936;2023-03-04T08:19:10;6.30;99.90
2459;DHT22;1241;50.920;6.936;2023-03-04T08:21:36;6.30;99.90
2459;DHT22;1241;50.920;6.936;2023-03-04T08:24:03;6.20;99.90
2459;DHT22;1241;50.920;6.936;2023-03-04T08:26:44;6.10;99.90
2459;DHT22;1241;50.920;6.936;2023-03-04T08:29:16;6.10;99.90
2459;DHT22;1241;50.920;6.936;2023-03-04T08:31:42;6.10;99.90
2459;DHT22;1241;50.920;6.936;2023-03-04T08:34:11;6.20;99.90
2459;DHT22;1241;50.920;6.936;2023-03-04T08:36:38;6.20;99.90
2459;DHT22;1241;50.920;6.936;2023-03-04T08:39:04;6.40;99.90
2459;DHT22;1241;50.920;6.936;2023-03-04T08:41:30;6.40;99.90
2459;DHT22;1241;50.920;6.936;2023-03-04T08:43:56;6.40;99.90
2459;DHT22;1241;50.920;6.936;2023-03-04T08:46:21;6.50;99.90
2459;DHT22;1241;50.920;6.936;2023-03-04T08:48:47;6.40;99.90
2459;DHT22;1241;50.920;6.936;2023-03-04T08:51:14;6.40;99.90
2459;DHT22;1241;50.920;6.936;2023-03-04T08:53:42;6.50;99.90
2459;DHT22;1241;50.920;6.936;2023-03-04T08:56:08;6.50;99.90
2459;DHT22;1241;50.920;6.936;2023-03-04T08:58:34;6.40;99.90
2459;DHT22;1241;50.920;6.936;2023-03-04T09:01:01;6.30;99.90
2459;DHT22;1241;50.920;6.936;2023-03-04T09:03:27;6.20;99.90
2459;DHT22;1241;50.920;6.936;2023-03-04T09:05:53;6.20;99.90
2459;DHT22;1241;50.920;6.936;2023-03-04T09:08:19;6.30;99.90
2459;DHT22;1241;50.920;6.936;2023-03-04T09:10:46;6.50;99.90
2459;DHT22;1241;50.920;6.936;2023-03-04T09:13:12;6.70;99.90
2459;DHT22;1241;50.920;6.936;2023-03-04T09:15:45;6.80;99.90
2459;DHT22;1241;50.920;6.936;2023-03-04T09:18:11;6.80;99.90
2459;DHT22;1241;50.920;6.936;2023-03-04T09:20:37;6.80;99.90
2459;DHT22;1241;50.920;6.936;2023-03-04T09:23:03;6.80;99.90
2459;DHT22;1241;50.920;6.936;2023-03-04T09:25:29;6.90;99.90
2459;DHT22;1241;50.920;6.936;2023-03-04T09:27:54;7.10;99.90
2459;DHT22;1241;50.920;6.936;2023-03-04T09:30:20;7.30;99.90
2459;DHT22;1241;50.920;6.936;2023-03-04T09:32:46;7.30;99.90
2459;DHT22;1241;50.920;6.936;2023-03-04T09:35:12;7.40;99.90
2459;DHT22;1241;50.920;6.936;2023-03-04T09:37:38;7.40;99.90
2459;DHT22;1241;50.920;6.936;2023-03-04T09:40:04;7.60;99.90
2459;DHT22;1241;50.920;6.936;2023-03-04T09:42:43;7.70;99.90
2459;DHT22;1241;50.920;6.936;2023-03-04T09:45:18;7.70;99.90
2459;DHT22;1241;50.920;6.936;2023-03-04T09:47:45;7.50;99.90
2459;DHT22;1241;50.920;6.936;2023-03-04T09:50:13;7.50;99.90
2459;DHT22;1241;50.920;6.936;2023-03-04T09:55:14;7.60;99.90
2459;DHT22;1241;50.920;6.936;2023-03-04T09:57:59;7.80;99.90
2459;DHT22;1241;50.920;6.936;2023-03-04T10:03:53;8.20;99.90
2459;DHT22;1241;50.920;6.936;2023-03-04T10:06:21;8.20;99.90
2459;DHT22;1241;50.920;6.936;2023-03-04T10:09:01;8.10;99.90
2459;DHT22;1241;50.920;6.936;2023-03-04T10:22:35;7.70;99.90
2459;DHT22;1241;50.920;6.936;2023-03-04T10:28:09;7.80;99.90
2459;DHT22;1241;50.920;6.936;2023-03-04T10:33:18;7.80;99.90
2459;DHT22;1241;50.920;6.936;2023-03-04T10:35:52;7.70;99.90
2459;DHT22;1241;50.920;6.936;2023-03-04T10:38:21;7.70;99.90
2459;DHT22;1241;50.920;6.936;2023-03-04T10:40:48;7.80;99.90
2459;DHT22;1241;50.920;6.936;2023-03-04T10:43:19;7.90;99.90
2459;DHT22;1241;50.920;6.936;2023-03-04T10:45:45;8.00;99.90
2459;DHT22;1241;50.920;6.936;2023-03-04T10:48:26;8.30;99.90
2459;DHT22;1241;50.920;6.936;2023-03-04T10:50:53;8.60;99.90
2459;DHT22;1241;50.920;6.936;2023-03-04T10:53:35;8.70;99.90
2459;DHT22;1241;50.920;6.936;2023-03-04T10:56:02;9.00;99.90
2459;DHT22;1241;50.920;6.936;2023-03-04T10:58:28;8.90;99.90
2459;DHT22;1241;50.920;6.936;2023-03-04T11:01:04;8.90;99.90
2459;DHT22;1241;50.920;6.936;2023-03-04T11:03:33;9.00;99.90
2459;DHT22;1241;50.920;6.936;2023-03-04T11:06:23;9.00;99.90
2459;DHT22;1241;50.920;6.936;2023-03-04T11:08:56;8.70;99.90
2459;DHT22;1241;50.920;6.936;2023-03-04T11:11:29;8.50;99.90
2459;DHT22;1241;50.920;6.936;2023-03-04T11:14:02;8.30;99.90
2459;DHT22;1241;50.920;6.936;2023-03-04T11:16:31;8.30;99.90
2459;DHT22;1241;50.920;6.936;2023-03-04T11:19:05;8.40;99.90
2459;DHT22;1241;50.920;6.936;2023-03-04T11:21:37;8.60;99.90
2459;DHT22;1241;50.920;6.936;2023-03-04T11:24:09;8.80;99.90
2459;DHT22;1241;50.920;6.936;2023-03-04T11:26:46;9.10;99.90
2459;DHT22;1241;50.920;6.936;2023-03-04T11:29:20;9.20;99.90
2459;DHT22;1241;50.920;6.936;2023-03-04T11:31:56;9.20;99.90
2459;DHT22;1241;50.920;6.936;2023-03-04T11:42:39;9.60;99.90
2459;DHT22;1241;50.920;6.936;2023-03-04T11:45:19;9.50;99.90
2459;DHT22;1241;50.920;6.936;2023-03-04T11:48:03;9.40;99.90
2459;DHT22;1241;50.920;6.936;2023-03-04T11:50:42;9.40;99.90
2459;DHT22;1241;50.920;6.936;2023-03-04T11:55:55;9.10;99.90
2459;DHT22;1241;50.920;6.936;2023-03-04T12:01:57;9.00;99.90
2459;DHT22;1241;50.920;6.936;2023-03-04T12:06:59;9.00;99.90
2459;DHT22;1241;50.920;6.936;2023-03-04T12:15:45;8.80;99.90
2459;DHT22;1241;50.920;6.936;2023-03-04T12:18:29;8.70;99.90
2459;DHT22;1241;50.920;6.936;2023-03-04T12:21:09;8.50;99.90
2459;DHT22;1241;50.920;6.936;2023-03-04T12:29:43;8.80;99.90
2459;DHT22;1241;50.920;6.936;2023-03-04T12:32:17;9.10;99.90
2459;DHT22;1241;50.920;6.936;2023-03-04T12:38:18;9.50;99.90
2459;DHT22;1241;50.920;6.936;2023-03-04T12:41:11;9.60;99.90
2459;DHT22;1241;50.920;6.936;2023-03-04T12:52:32;9.60;99.90
2459;DHT22;1241;50.920;6.936;2023-03-04T12:55:09;9.40;99.90
2459;DHT22;1241;50.920;6.936;2023-03-04T12:57:35;9.20;99.90
2459;DHT22;1241;50.920;6.936;2023-03-04T13:00:23;9.00;99.90
2459;DHT22;1241;50.920;6.936;2023-03-04T13:09:08;9.10;99.90
2459;DHT22;1241;50.920;6.936;2023-03-04T13:11:49;9.20;99.90
2459;DHT22;1241;50.920;6.936;2023-03-04T13:28:20;9.20;99.90
2459;DHT22;1241;50.920;6.936;2023-03-04T13:41:23;9.80;99.90
2459;DHT22;1241;50.920;6.936;2023-03-04T13:43:58;9.80;99.90
2459;DHT22;1241;50.920;6.936;2023-03-04T13:51:18;9.40;99.90
2459;DHT22;1241;50.920;6.936;2023-03-04T13:53:52;9.20;99.90
2459;DHT22;1241;50.920;6.936;2023-03-04T13:56:33;9.20;99.90
2459;DHT22;1241;50.920;6.936;2023-03-04T13:59:25;9.00;99.90
2459;DHT22;1241;50.920;6.936;2023-03-04T14:01:55;8.80;99.90
2459;DHT22;1241;50.920;6.936;2023-03-04T14:04:38;8.80;99.90
2459;DHT22;1241;50.920;6.936;2023-03-04T14:07:25;8.80;99.90
2459;DHT22;1241;50.920;6.936;2023-03-04T14:15:22;8.90;99.90
2459;DHT22;1241;50.920;6.936;2023-03-04T14:17:55;8.80;99.90
2459;DHT22;1241;50.920;6.936;2023-03-04T14:20:25;8.70;99.90
2459;DHT22;1241;50.920;6.936;2023-03-04T14:22:52;8.60;99.90
2459;DHT22;1241;50.920;6.936;2023-03-04T14:25:19;8.50;99.90
2459;DHT22;1241;50.920;6.936;2023-03-04T14:27:46;8.30;99.90
2459;DHT22;1241;50.920;6.936;2023-03-04T14:30:25;8.20;99.90
2459;DHT22;1241;50.920;6.936;2023-03-04T14:32:53;8.20;99.90
2459;DHT22;1241;50.920;6.936;2023-03-04T14:35:23;8.20;99.90
2459;DHT22;1241;50.920;6.936;2023-03-04T14:40:49;8.30;99.90
2459;DHT22;1241;50.920;6.936;2023-03-04T14:43:21;8.40;99.90
2459;DHT22;1241;50.920;6.936;2023-03-04T14:45:53;8.40;99.90
2459;DHT22;1241;50.920;6.936;2023-03-04T14:48:32;8.40;99.90
2459;DHT22;1241;50.920;6.936;2023-03-04T14:51:00;8.50;99.90
2459;DHT22;1241;50.920;6.936;2023-03-04T14:53:28;8.50;99.90
2459;DHT22;1241;50.920;6.936;2023-03-04T14:58:37;8.60;99.90
2459;DHT22;1241;50.920;6.936;2023-03-04T15:01:15;8.60;99.90
2459;DHT22;1241;50.920;6.936;2023-03-04T15:03:52;8.60;99.90
2459;DHT22;1241;50.920;6.936;2023-03-04T15:06:21;8.70;99.90
2459;DHT22;1241;50.920;6.936;2023-03-04T15:09:15;8.60;99.90
2459;DHT22;1241;50.920;6.936;2023-03-04T15:11:48;8.50;99.90
2459;DHT22;1241;50.920;6.936;2023-03-04T15:14:43;8.50;99.90
2459;DHT22;1241;50.920;6.936;2023-03-04T15:17:38;8.40;99.90
2459;DHT22;1241;50.920;6.936;2023-03-04T15:23:01;8.30;99.90
2459;DHT22;1241;50.920;6.936;2023-03-04T15:25:27;8.30;99.90
2459;DHT22;1241;50.920;6.936;2023-03-04T15:27:53;8.20;99.90
2459;DHT22;1241;50.920;6.936;2023-03-04T15:32:46;8.20;99.90
2459;DHT22;1241;50.920;6.936;2023-03-04T15:35:13;8.20;99.90
2459;DHT22;1241;50.920;6.936;2023-03-04T15:37:39;8.20;99.90
2459;DHT22;1241;50.920;6.936;2023-03-04T15:40:13;8.20;99.90
2459;DHT22;1241;50.920;6.936;2023-03-04T15:42:39;8.60;99.90
2459;DHT22;1241;50.920;6.936;2023-03-04T15:45:21;8.20;99.90
2459;DHT22;1241;50.920;6.936;2023-03-04T15:47:48;8.20;99.90
2459;DHT22;1241;50.920;6.936;2023-03-04T15:50:15;8.20;99.90
2459;DHT22;1241;50.920;6.936;2023-03-04T15:52:41;8.10;99.90
2459;DHT22;1241;50.920;6.936;2023-03-04T15:55:14;8.00;99.90
2459;DHT22;1241;50.920;6.936;2023-03-04T15:57:41;7.90;99.90
2459;DHT22;1241;50.920;6.936;2023-03-04T16:00:09;7.80;99.90
2459;DHT22;1241;50.920;6.936;2023-03-04T16:02:37;7.90;99.90
2459;DHT22;1241;50.920;6.936;2023-03-04T16:05:05;7.90;99.90
2459;DHT22;1241;50.920;6.936;2023-03-04T16:07:30;7.80;99.90
2459;DHT22;1241;50.920;6.936;2023-03-04T16:09:59;7.90;99.90
2459;DHT22;1241;50.920;6.936;2023-03-04T16:12:27;7.70;99.90
2459;DHT22;1241;50.920;6.936;2023-03-04T16:14:53;7.70;99.90
2459;DHT22;1241;50.920;6.936;2023-03-04T16:17:19;7.60;99.90
2459;DHT22;1241;50.920;6.936;2023-03-04T16:19:45;7.50;99.90
2459;DHT22;1241;50.920;6.936;2023-03-04T16:22:20;7.40;99.90
2459;DHT22;1241;50.920;6.936;2023-03-04T16:24:49;7.40;99.90
2459;DHT22;1241;50.920;6.936;2023-03-04T16:27:16;7.40;99.90
2459;DHT22;1241;50.920;6.936;2023-03-04T16:29:43;7.50;99.90
2459;DHT22;1241;50.920;6.936;2023-03-04T16:32:09;7.50;99.90
2459;DHT22;1241;50.920;6.936;2023-03-04T16:34:35;7.50;99.90
2459;DHT22;1241;50.920;6.936;2023-03-04T16:37:06;7.60;99.90
2459;DHT22;1241;50.920;6.936;2023-03-04T16:39:35;7.70;99.90
2459;DHT22;1241;50.920;6.936;2023-03-04T16:42:01;7.60;99.90
2459;DHT22;1241;50.920;6.936;2023-03-04T16:44:27;7.50;99.90
2459;DHT22;1241;50.920;6.936;2023-03-04T16:46:53;7.60;99.90
2459;DHT22;1241;50.920;6.936;2023-03-04T16:49:18;7.60;99.90
2459;DHT22;1241;50.920;6.936;2023-03-04T16:51:47;7.60;99.90
2459;DHT22;1241;50.920;6.936;2023-03-04T16:54:24;7.60;99.90
2459;DHT22;1241;50.920;6.936;2023-03-04T16:56:52;7.70;99.90
2459;DHT22;1241;50.920;6.936;2023-03-04T16:59:17;7.60;99.90
2459;DHT22;1241;50.920;6.936;2023-03-04T17:01:43;7.50;99.90
2459;DHT22;1241;50.920;6.936;2023-03-04T17:04:09;7.50;99.90
2459;DHT22;1241;50.920;6.936;2023-03-04T17:06:35;7.50;99.90
2459;DHT22;1241;50.920;6.936;2023-03-04T17:09:04;7.40;99.90
2459;DHT22;1241;50.920;6.936;2023-03-04T17:11:30;7.30;99.90
2459;DHT22;1241;50.920;6.936;2023-03-04T17:13:55;7.30;99.90
2459;DHT22;1241;50.920;6.936;2023-03-04T17:16:21;7.30;99.90
2459;DHT22;1241;50.920;6.936;2023-03-04T17:18:48;7.30;99.90
2459;DHT22;1241;50.920;6.936;2023-03-04T17:21:16;7.30;99.90
2459;DHT22;1241;50.920;6.936;2023-03-04T17:23:43;7.30;99.90
2459;DHT22;1241;50.920;6.936;2023-03-04T17:26:08;7.20;99.90
2459;DHT22;1241;50.920;6.936;2023-03-04T17:28:35;7.30;99.90
2459;DHT22;1241;50.920;6.936;2023-03-04T17:31:01;7.30;99.90
2459;DHT22;1241;50.920;6.936;2023-03-04T17:33:32;7.20;99.90
2459;DHT22;1241;50.920;6.936;2023-03-04T17:35:57;7.20;99.90
2459;DHT22;1241;50.920;6.936;2023-03-04T17:38:23;7.20;99.90
2459;DHT22;1241;50.920;6.936;2023-03-04T17:40:49;7.20;99.90
2459;DHT22;1241;50.920;6.936;2023-03-04T17:43:15;7.30;99.90
2459;DHT22;1241;50.920;6.936;2023-03-04T17:45:41;7.30;99.90
2459;DHT22;1241;50.920;6.936;2023-03-04T17:48:08;7.30;99.90
2459;DHT22;1241;50.920;6.936;2023-03-04T17:50:49;7.20;99.90
2459;DHT22;1241;50.920;6.936;2023-03-04T17:53:15;7.30;99.90
2459;DHT22;1241;50.920;6.936;2023-03-04T17:55:51;7.30;99.90
2459;DHT22;1241;50.920;6.936;2023-03-04T17:58:17;7.30;99.90
2459;DHT22;1241;50.920;6.936;2023-03-04T18:00:43;7.30;99.90
2459;DHT22;1241;50.920;6.936;2023-03-04T18:03:11;7.50;99.90
2459;DHT22;1241;50.920;6.936;2023-03-04T18:05:38;7.50;99.90
2459;DHT22;1241;50.920;6.936;2023-03-04T18:08:04;7.60;99.90
2459;DHT22;1241;50.920;6.936;2023-03-04T18:10:30;7.70;99.90
2459;DHT22;1241;50.920;6.936;2023-03-04T18:12:55;7.70;99.90
2459;DHT22;1241;50.920;6.936;2023-03-04T18:15:21;7.70;99.90
2459;DHT22;1241;50.920;6.936;2023-03-04T18:17:47;7.70;99.90
2459;DHT22;1241;50.920;6.936;2023-03-04T18:20:13;7.80;99.90
2459;DHT22;1241;50.920;6.936;2023-03-04T18:22:39;7.70;99.90
2459;DHT22;1241;50.920;6.936;2023-03-04T18:25:06;7.70;99.90
2459;DHT22;1241;50.920;6.936;2023-03-04T18:27:35;7.80;99.90